Eastpoint, FL

6:13 PM EDT on September 01, 2014 (GMT -0400)
Tallahassee Regional | Change Station
CLOSE
Current Station
Airport
Location: Tallahassee,
Elevation: 52 ft
Nearby Weather Stations

Elev 52 ft 30.39 °N, 84.35 °W | Updated 20 minutes ago

Scattered Clouds
Scattered Clouds
84 °F
Feels Like 95 °F
N
4
Wind Variable Wind from West

Today
High -- | Low -- °F
--% Chance of Precip.
Yesterday
High -- | Low -- °F
Precip. -- in
7:16 AM 8:01 PM
Waxing Crescent, 44% visible
Pressure 30.03 in
Visibility 10.0 miles
Clouds Few 4000 ft
Scattered Clouds 11000 ft
Scattered Clouds 25000 ft
Heat Index 95 °F
Dew Point 78 °F
Humidity 82%
Rainfall 1.14 in
Snow Depth Not available.
UV 2 out of 12
Pollen 7.70 out of 12
Air Quality Not available.
Flu Activity Not available.
METAR KTLH 012153Z 27003KT 10SM FEW040 SCT110 SCT250 29/26 A3003 RMK AO2 SLP168 T02890256 $

More Conditions Fewer Conditions

Pressure 30.03 in
Visibility 10.0 miles
Clouds Few 4000 ft
Scattered Clouds 11000 ft
Scattered Clouds 25000 ft
Heat Index 95 °F
Dew Point 78 °F
Humidity 82%
Rainfall 1.14 in
Snow Depth Not available.
UV 2 out of 12
Pollen 7.70 out of 12
Air Quality Not available.
Flu Activity Not available.
METAR KTLH 012153Z 27003KT 10SM FEW040 SCT110 SCT250 29/26 A3003 RMK AO2 SLP168 T02890256 $

More Conditions Fewer Conditions

10-Day Weather Forecast

Almanac

Astronomy

Sep. 01, 2014 Rise Set
Actual Time 7:16 AM EDT 8:01 PM EDT
Civil Twilight 6:52 AM EDT 8:26 PM EDT
Nautical Twilight 6:23 AM EDT 8:54 PM EDT
Astronomical Twilight 5:54 AM EDT 9:23 PM EDT
Moon 1:32 PM EDT No Moon Set
Length of Visible Light 13h 33m
Length of Day
12h 45m
Tomorrow will be 1m 42s shorter.
Waxing Crescent, 44% of the Moon is Illuminated
Today
Waxing Crescent
Sep 2
First Quarter
Sep 8
Full
Sep 15
Last Quarter
Sep 24
New

Today's Extremes

State Highs State Lows

Community

WunderPhotos

Upload Photos

1,749,420 photos uploaded!

Nearby

Snow Depth

Station Depth Elevation
No new snow has been reported.

Earthquake Activity

City Distance Mag. Time & Date
No recent earthquake activity has been reported nearby.
Minimum magnitude displayed is 2.5.

Coastal Water Temperatures

Place Temperature
Apalachicola, FL 87.1 °F
Panama City, FL 88.0 °F
Panama City Beach, FL 87.1 °F

Nearby Weather Stations